sensor_id;sensor_type;location;lat;lon;timestamp;pressure;altitude;pressure_sealevel;temperature;humidity
30856;BME280;17570;0.000;0.000;2022-10-31T00:00:47;97354.41;;;20.56;36.64
30856;BME280;17570;0.000;0.000;2022-10-31T00:03:15;97346.69;;;20.54;36.38
30856;BME280;17570;0.000;0.000;2022-10-31T00:05:44;97355.27;;;20.56;36.34
30856;BME280;17570;0.000;0.000;2022-10-31T00:08:12;97353.16;;;20.52;35.99
30856;BME280;17570;0.000;0.000;2022-10-31T00:10:40;97352.80;;;20.47;36.12
30856;BME280;17570;0.000;0.000;2022-10-31T00:13:07;97349.52;;;20.45;36.32
30856;BME280;17570;0.000;0.000;2022-10-31T00:15:38;97356.14;;;20.41;36.08
30856;BME280;17570;0.000;0.000;2022-10-31T00:18:05;97355.84;;;20.35;36.07
30856;BME280;17570;0.000;0.000;2022-10-31T00:20:33;97348.94;;;20.34;36.07
30856;BME280;17570;0.000;0.000;2022-10-31T00:23:01;97353.25;;;20.27;36.18
30856;BME280;17570;0.000;0.000;2022-10-31T00:25:32;97351.27;;;20.29;36.22
30856;BME280;17570;0.000;0.000;2022-10-31T00:27:57;97348.79;;;20.28;36.21
30856;BME280;17570;0.000;0.000;2022-10-31T00:30:25;97351.80;;;20.25;36.34
30856;BME280;17570;0.000;0.000;2022-10-31T00:32:53;97361.03;;;20.21;36.49
30856;BME280;17570;0.000;0.000;2022-10-31T00:35:20;97363.48;;;20.22;36.56
30856;BME280;17570;0.000;0.000;2022-10-31T00:37:48;97363.19;;;20.17;36.47
30856;BME280;17570;0.000;0.000;2022-10-31T00:40:15;97356.09;;;20.18;36.55
30856;BME280;17570;0.000;0.000;2022-10-31T00:42:43;97351.02;;;20.16;36.50
30856;BME280;17570;0.000;0.000;2022-10-31T00:45:10;97349.19;;;20.17;36.86
30856;BME280;17570;0.000;0.000;2022-10-31T00:47:38;97349.53;;;20.13;36.66
30856;BME280;17570;0.000;0.000;2022-10-31T00:50:06;97351.02;;;20.16;36.60
30856;BME280;17570;0.000;0.000;2022-10-31T00:52:34;97356.47;;;20.15;36.53
30856;BME280;17570;0.000;0.000;2022-10-31T00:55:02;97357.80;;;20.10;36.84
30856;BME280;17570;0.000;0.000;2022-10-31T00:57:30;97361.77;;;20.06;36.73
30856;BME280;17570;0.000;0.000;2022-10-31T00:59:57;97361.92;;;20.05;36.80
30856;BME280;17570;0.000;0.000;2022-10-31T01:02:25;97359.13;;;20.06;36.98
30856;BME280;17570;0.000;0.000;2022-10-31T01:04:52;97352.67;;;20.09;36.74
30856;BME280;17570;0.000;0.000;2022-10-31T01:07:20;97361.28;;;20.03;37.09
30856;BME280;17570;0.000;0.000;2022-10-31T01:09:47;97365.06;;;20.00;37.19
30856;BME280;17570;0.000;0.000;2022-10-31T01:12:15;97354.89;;;19.97;37.06
30856;BME280;17570;0.000;0.000;2022-10-31T01:14:43;97360.98;;;19.98;37.00
30856;BME280;17570;0.000;0.000;2022-10-31T01:17:11;97359.98;;;19.99;36.84
30856;BME280;17570;0.000;0.000;2022-10-31T01:19:39;97358.52;;;19.96;36.85
30856;BME280;17570;0.000;0.000;2022-10-31T01:22:07;97369.22;;;19.95;36.76
30856;BME280;17570;0.000;0.000;2022-10-31T01:24:35;97371.84;;;19.95;36.91
30856;BME280;17570;0.000;0.000;2022-10-31T01:27:03;97381.39;;;19.96;37.09
30856;BME280;17570;0.000;0.000;2022-10-31T01:29:32;97389.47;;;19.94;37.28
30856;BME280;17570;0.000;0.000;2022-10-31T01:32:00;97392.47;;;19.91;37.03
30856;BME280;17570;0.000;0.000;2022-10-31T01:34:27;97393.62;;;19.88;36.99
30856;BME280;17570;0.000;0.000;2022-10-31T01:36:55;97399.52;;;19.91;36.95
30856;BME280;17570;0.000;0.000;2022-10-31T01:39:22;97411.42;;;19.86;36.98
30856;BME280;17570;0.000;0.000;2022-10-31T01:41:51;97411.08;;;19.81;36.93
30856;BME280;17570;0.000;0.000;2022-10-31T01:46:54;97407.31;;;19.76;36.74
30856;BME280;17570;0.000;0.000;2022-10-31T01:49:24;97405.34;;;19.78;37.08
30856;BME280;17570;0.000;0.000;2022-10-31T01:51:57;97408.48;;;19.73;36.98
30856;BME280;17570;0.000;0.000;2022-10-31T01:54:25;97412.95;;;19.65;37.20
30856;BME280;17570;0.000;0.000;2022-10-31T01:56:53;97413.77;;;19.65;37.14
30856;BME280;17570;0.000;0.000;2022-10-31T01:59:22;97408.67;;;19.64;37.33
30856;BME280;17570;0.000;0.000;2022-10-31T02:01:51;97407.50;;;19.66;37.20
30856;BME280;17570;0.000;0.000;2022-10-31T02:04:19;97411.95;;;19.66;37.35
30856;BME280;17570;0.000;0.000;2022-10-31T02:06:49;97406.69;;;19.66;37.47
30856;BME280;17570;0.000;0.000;2022-10-31T02:09:18;97411.95;;;19.66;37.34
30856;BME280;17570;0.000;0.000;2022-10-31T02:11:48;97414.27;;;19.60;37.57
30856;BME280;17570;0.000;0.000;2022-10-31T02:14:15;97412.95;;;19.65;37.48
30856;BME280;17570;0.000;0.000;2022-10-31T02:16:44;97412.77;;;19.66;37.62
30856;BME280;17570;0.000;0.000;2022-10-31T02:19:12;97418.22;;;19.65;37.46
30856;BME280;17570;0.000;0.000;2022-10-31T02:21:43;97417.86;;;19.68;37.51
30856;BME280;17570;0.000;0.000;2022-10-31T02:26:49;97425.61;;;19.69;37.67
30856;BME280;17570;0.000;0.000;2022-10-31T02:32:08;97418.22;;;19.65;37.57
30856;BME280;17570;0.000;0.000;2022-10-31T02:34:41;97418.87;;;19.50;38.00
30856;BME280;17570;0.000;0.000;2022-10-31T02:37:09;97419.36;;;19.54;37.85
30856;BME280;17570;0.000;0.000;2022-10-31T02:39:43;97424.63;;;19.54;37.83
30856;BME280;17570;0.000;0.000;2022-10-31T02:42:09;97424.48;;;19.64;37.87
30856;BME280;17570;0.000;0.000;2022-10-31T02:44:39;97420.49;;;19.68;37.79
30856;BME280;17570;0.000;0.000;2022-10-31T02:47:19;97423.30;;;19.66;37.77
30856;BME280;17570;0.000;0.000;2022-10-31T02:49:48;97420.84;;;19.65;37.62
30856;BME280;17570;0.000;0.000;2022-10-31T02:52:23;97429.08;;;19.61;37.84
30856;BME280;17570;0.000;0.000;2022-10-31T02:54:50;97441.25;;;19.62;37.87
30856;BME280;17570;0.000;0.000;2022-10-31T02:57:33;97428.08;;;19.62;38.06
30856;BME280;17570;0.000;0.000;2022-10-31T03:00:05;97426.61;;;19.68;37.73
30856;BME280;17570;0.000;0.000;2022-10-31T03:02:37;97433.34;;;19.62;37.97
30856;BME280;17570;0.000;0.000;2022-10-31T03:05:12;97429.75;;;19.64;38.05
30856;BME280;17570;0.000;0.000;2022-10-31T03:07:47;97433.02;;;19.66;38.08
30856;BME280;17570;0.000;0.000;2022-10-31T03:13:26;97426.44;;;19.61;38.03
30856;BME280;17570;0.000;0.000;2022-10-31T03:15:17;97433.34;;;19.62;38.27
30856;BME280;17570;0.000;0.000;2022-10-31T03:20:15;97435.83;;;19.64;37.94
30856;BME280;17570;0.000;0.000;2022-10-31T03:22:43;97430.89;;;19.61;38.27
30856;BME280;17570;0.000;0.000;2022-10-31T03:25:11;97435.34;;;19.60;38.04
30856;BME280;17570;0.000;0.000;2022-10-31T03:27:40;97437.80;;;19.62;37.83
30856;BME280;17570;0.000;0.000;2022-10-31T03:30:09;97441.09;;;19.64;37.77
30856;BME280;17570;0.000;0.000;2022-10-31T03:32:40;97441.42;;;19.61;37.90
30856;BME280;17570;0.000;0.000;2022-10-31T03:35:08;97441.89;;;19.56;37.65
30856;BME280;17570;0.000;0.000;2022-10-31T03:37:37;97448.64;;;19.67;38.71
30856;BME280;17570;0.000;0.000;2022-10-31T03:40:08;97449.81;;;19.73;39.05
30856;BME280;17570;0.000;0.000;2022-10-31T03:42:38;97451.09;;;19.77;38.86
30856;BME280;17570;0.000;0.000;2022-10-31T03:45:07;97456.72;;;19.74;38.66
30856;BME280;17570;0.000;0.000;2022-10-31T03:47:35;97448.00;;;19.73;38.38
30856;BME280;17570;0.000;0.000;2022-10-31T03:50:08;97449.81;;;19.73;38.44
30856;BME280;17570;0.000;0.000;2022-10-31T03:52:51;97453.59;;;19.70;38.49
30856;BME280;17570;0.000;0.000;2022-10-31T03:55:18;97459.53;;;19.64;38.43
30856;BME280;17570;0.000;0.000;2022-10-31T03:57:53;97458.52;;;19.57;38.60
30856;BME280;17570;0.000;0.000;2022-10-31T04:00:22;97455.06;;;19.56;38.73
30856;BME280;17570;0.000;0.000;2022-10-31T04:03:11;97458.69;;;19.55;38.70
30856;BME280;17570;0.000;0.000;2022-10-31T04:05:40;97449.61;;;19.58;38.67
30856;BME280;17570;0.000;0.000;2022-10-31T04:08:10;97451.28;;;19.51;38.88
30856;BME280;17570;0.000;0.000;2022-10-31T04:10:38;97453.42;;;19.55;38.86
30856;BME280;17570;0.000;0.000;2022-10-31T04:13:08;97457.38;;;19.59;39.07
30856;BME280;17570;0.000;0.000;2022-10-31T04:15:41;97458.05;;;19.61;39.02
30856;BME280;17570;0.000;0.000;2022-10-31T04:18:10;97458.69;;;19.55;39.36
30856;BME280;17570;0.000;0.000;2022-10-31T04:20:39;97464.30;;;19.60;39.16
30856;BME280;17570;0.000;0.000;2022-10-31T04:23:20;97463.48;;;19.60;39.09
30856;BME280;17570;0.000;0.000;2022-10-31T04:25:48;97461.50;;;19.62;39.24
30856;BME280;17570;0.000;0.000;2022-10-31T04:28:16;97468.72;;;19.52;39.28
30856;BME280;17570;0.000;0.000;2022-10-31T04:30:45;97463.14;;;19.55;39.18
30856;BME280;17570;0.000;0.000;2022-10-31T04:33:13;97470.53;;;19.59;39.20
30856;BME280;17570;0.000;0.000;2022-10-31T04:35:42;97462.48;;;19.61;39.27
30856;BME280;17570;0.000;0.000;2022-10-31T04:38:10;97461.67;;;19.60;39.24
30856;BME280;17570;0.000;0.000;2022-10-31T04:40:38;97463.63;;;19.67;39.09
30856;BME280;17570;0.000;0.000;2022-10-31T04:43:07;97468.89;;;19.67;39.37
30856;BME280;17570;0.000;0.000;2022-10-31T04:45:35;97464.45;;;19.67;39.45
30856;BME280;17570;0.000;0.000;2022-10-31T04:48:03;97468.75;;;19.68;39.72
30856;BME280;17570;0.000;0.000;2022-10-31T04:50:32;97467.91;;;19.68;39.47
30856;BME280;17570;0.000;0.000;2022-10-31T04:52:59;97474.84;;;19.69;39.73
30856;BME280;17570;0.000;0.000;2022-10-31T04:55:29;97478.79;;;19.73;39.74
30856;BME280;17570;0.000;0.000;2022-10-31T04:57:58;97474.66;;;19.70;39.70
30856;BME280;17570;0.000;0.000;2022-10-31T05:00:26;97471.39;;;19.68;39.44
30856;BME280;17570;0.000;0.000;2022-10-31T05:02:55;97481.42;;;19.73;39.31
30856;BME280;17570;0.000;0.000;2022-10-31T05:05:26;97482.24;;;19.73;39.50
30856;BME280;17570;0.000;0.000;2022-10-31T05:07:54;97479.61;;;19.73;39.64
30856;BME280;17570;0.000;0.000;2022-10-31T05:10:24;97487.33;;;19.75;39.48
30856;BME280;17570;0.000;0.000;2022-10-31T05:12:52;97487.64;;;19.88;41.11
30856;BME280;17570;0.000;0.000;2022-10-31T05:15:40;97487.64;;;19.96;41.45
30856;BME280;17570;0.000;0.000;2022-10-31T05:18:26;97487.83;;;19.86;41.42
30856;BME280;17570;0.000;0.000;2022-10-31T05:20:55;97497.19;;;19.81;41.21
30856;BME280;17570;0.000;0.000;2022-10-31T05:23:37;97493.56;;;19.90;40.62
30856;BME280;17570;0.000;0.000;2022-10-31T05:26:06;97494.23;;;19.84;40.50
30856;BME280;17570;0.000;0.000;2022-10-31T05:28:33;97498.50;;;19.93;41.08
30856;BME280;17570;0.000;0.000;2022-10-31T05:31:03;97501.27;;;20.08;41.57
30856;BME280;17570;0.000;0.000;2022-10-31T05:33:31;97507.03;;;20.11;41.30
30856;BME280;17570;0.000;0.000;2022-10-31T05:36:17;97508.84;;;20.11;41.04
30856;BME280;17570;0.000;0.000;2022-10-31T05:38:46;97514.31;;;19.93;41.12
30856;BME280;17570;0.000;0.000;2022-10-31T05:41:18;97512.64;;;20.00;40.96
30856;BME280;17570;0.000;0.000;2022-10-31T05:43:46;97520.22;;;19.95;40.73
30856;BME280;17570;0.000;0.000;2022-10-31T05:46:14;97521.22;;;19.94;40.66
30856;BME280;17570;0.000;0.000;2022-10-31T05:48:47;97528.30;;;19.94;40.35
30856;BME280;17570;0.000;0.000;2022-10-31T05:51:32;97524.70;;;19.86;40.34
30856;BME280;17570;0.000;0.000;2022-10-31T05:54:01;97530.47;;;19.74;40.46
30856;BME280;17570;0.000;0.000;2022-10-31T05:56:29;97540.66;;;19.77;40.42
30856;BME280;17570;0.000;0.000;2022-10-31T05:58:57;97535.07;;;19.80;40.42
30856;BME280;17570;0.000;0.000;2022-10-31T06:01:25;97537.06;;;19.78;40.20
30856;BME280;17570;0.000;0.000;2022-10-31T06:03:53;97534.11;;;19.73;40.11
30856;BME280;17570;0.000;0.000;2022-10-31T06:06:22;97541.16;;;19.72;40.10
30856;BME280;17570;0.000;0.000;2022-10-31T06:08:50;97540.83;;;19.67;40.46
30856;BME280;17570;0.000;0.000;2022-10-31T06:11:19;97541.51;;;19.69;40.33
30856;BME280;17570;0.000;0.000;2022-10-31T06:13:50;97541.83;;;19.66;40.71
30856;BME280;17570;0.000;0.000;2022-10-31T06:16:20;97542.64;;;19.67;41.06
30856;BME280;17570;0.000;0.000;2022-10-31T06:18:47;97550.55;;;19.67;41.37
30856;BME280;17570;0.000;0.000;2022-10-31T06:21:15;97546.27;;;19.66;41.45
30856;BME280;17570;0.000;0.000;2022-10-31T06:23:42;97547.59;;;19.70;41.34
30856;BME280;17570;0.000;0.000;2022-10-31T06:26:21;97541.33;;;19.71;41.47
30856;BME280;17570;0.000;0.000;2022-10-31T06:28:49;97549.54;;;19.59;41.70
30856;BME280;17570;0.000;0.000;2022-10-31T06:31:18;97554.99;;;19.66;41.94
30856;BME280;17570;0.000;0.000;2022-10-31T06:33:45;97553.03;;;19.68;42.16
30856;BME280;17570;0.000;0.000;2022-10-31T06:36:13;97555.16;;;19.89;43.18
30856;BME280;17570;0.000;0.000;2022-10-31T06:38:41;97556.79;;;20.06;43.19
30856;BME280;17570;0.000;0.000;2022-10-31T06:41:09;97550.52;;;20.16;42.71
30856;BME280;17570;0.000;0.000;2022-10-31T06:43:47;97552.97;;;20.17;42.33
30856;BME280;17570;0.000;0.000;2022-10-31T06:46:18;97559.73;;;20.20;42.57
30856;BME280;17570;0.000;0.000;2022-10-31T06:48:59;97557.42;;;20.17;42.24
30856;BME280;17570;0.000;0.000;2022-10-31T06:51:35;97560.06;;;20.17;42.13
30856;BME280;17570;0.000;0.000;2022-10-31T06:54:02;97559.23;;;20.24;41.68
30856;BME280;17570;0.000;0.000;2022-10-31T06:56:30;97557.05;;;20.36;41.09
30856;BME280;17570;0.000;0.000;2022-10-31T06:58:58;97559.38;;;20.47;40.88
30856;BME280;17570;0.000;0.000;2022-10-31T07:01:43;97558.38;;;20.48;41.28
30856;BME280;17570;0.000;0.000;2022-10-31T07:04:11;97557.36;;;20.41;41.09
30856;BME280;17570;0.000;0.000;2022-10-31T07:06:39;97565.11;;;20.51;41.12
30856;BME280;17570;0.000;0.000;2022-10-31T07:09:07;97565.55;;;20.71;41.14
30856;BME280;17570;0.000;0.000;2022-10-31T07:11:35;97556.13;;;20.76;40.80
30856;BME280;17570;0.000;0.000;2022-10-31T07:14:07;97550.34;;;20.81;40.73
30856;BME280;17570;0.000;0.000;2022-10-31T07:16:34;97545.55;;;20.84;42.27
30856;BME280;17570;0.000;0.000;2022-10-31T07:19:02;97547.66;;;20.89;41.04
30856;BME280;17570;0.000;0.000;2022-10-31T07:21:30;97549.75;;;20.94;41.00
30856;BME280;17570;0.000;0.000;2022-10-31T07:23:57;97545.63;;;20.99;41.12
30856;BME280;17570;0.000;0.000;2022-10-31T07:26:45;97538.64;;;21.06;40.95
30856;BME280;17570;0.000;0.000;2022-10-31T07:29:14;97539.02;;;21.03;41.30
30856;BME280;17570;0.000;0.000;2022-10-31T07:31:45;97533.62;;;21.20;41.28
30856;BME280;17570;0.000;0.000;2022-10-31T07:34:14;97534.20;;;21.30;40.57
30856;BME280;17570;0.000;0.000;2022-10-31T07:36:59;97533.03;;;21.41;40.46
30856;BME280;17570;0.000;0.000;2022-10-31T07:39:27;97541.39;;;21.44;40.45
30856;BME280;17570;0.000;0.000;2022-10-31T07:41:57;97530.87;;;21.59;40.30
30856;BME280;17570;0.000;0.000;2022-10-31T07:44:23;97533.75;;;21.72;40.44
30856;BME280;17570;0.000;0.000;2022-10-31T07:46:59;97530.85;;;21.82;39.98
30856;BME280;17570;0.000;0.000;2022-10-31T07:49:44;97526.70;;;21.87;40.11
30856;BME280;17570;0.000;0.000;2022-10-31T07:52:23;97523.52;;;21.92;40.01
30856;BME280;17570;0.000;0.000;2022-10-31T07:55:10;97523.25;;;22.02;39.36
30856;BME280;17570;0.000;0.000;2022-10-31T07:57:38;97526.80;;;22.09;39.50
30856;BME280;17570;0.000;0.000;2022-10-31T08:00:06;97530.61;;;22.29;38.58
30856;BME280;17570;0.000;0.000;2022-10-31T08:02:36;97533.59;;;22.41;38.62
30856;BME280;17570;0.000;0.000;2022-10-31T08:05:14;97525.84;;;22.54;38.08
30856;BME280;17570;0.000;0.000;2022-10-31T08:07:44;97527.75;;;22.60;38.50
30856;BME280;17570;0.000;0.000;2022-10-31T08:10:12;97529.28;;;22.70;37.62
30856;BME280;17570;0.000;0.000;2022-10-31T08:12:39;97532.45;;;22.80;37.62
30856;BME280;17570;0.000;0.000;2022-10-31T08:15:07;97529.84;;;22.95;37.61
30856;BME280;17570;0.000;0.000;2022-10-31T08:17:36;97521.77;;;23.03;37.34
30856;BME280;17570;0.000;0.000;2022-10-31T08:20:04;97524.11;;;23.12;36.83
30856;BME280;17570;0.000;0.000;2022-10-31T08:22:33;97522.00;;;23.23;36.86
30856;BME280;17570;0.000;0.000;2022-10-31T08:25:01;97524.70;;;23.29;37.05
30856;BME280;17570;0.000;0.000;2022-10-31T08:27:29;97527.23;;;23.37;35.92
30856;BME280;17570;0.000;0.000;2022-10-31T08:29:58;97530.75;;;23.45;36.12
30856;BME280;17570;0.000;0.000;2022-10-31T08:32:26;97525.90;;;23.48;36.41
30856;BME280;17570;0.000;0.000;2022-10-31T08:35:11;97514.59;;;23.82;36.47
30856;BME280;17570;0.000;0.000;2022-10-31T08:37:53;97511.22;;;23.95;36.08
30856;BME280;17570;0.000;0.000;2022-10-31T08:40:25;97519.05;;;24.03;35.89
30856;BME280;17570;0.000;0.000;2022-10-31T08:42:56;97515.23;;;24.12;36.02
30856;BME280;17570;0.000;0.000;2022-10-31T08:45:24;97511.99;;;24.17;35.67
30856;BME280;17570;0.000;0.000;2022-10-31T08:47:52;97505.04;;;24.44;35.82
30856;BME280;17570;0.000;0.000;2022-10-31T08:50:19;97512.88;;;24.65;35.65
30856;BME280;17570;0.000;0.000;2022-10-31T08:52:47;97508.02;;;24.76;35.01
30856;BME280;17570;0.000;0.000;2022-10-31T08:55:15;97511.32;;;24.84;34.90
30856;BME280;17570;0.000;0.000;2022-10-31T08:58:03;97510.94;;;24.87;34.46
30856;BME280;17570;0.000;0.000;2022-10-31T09:00:33;97516.84;;;24.83;34.20
30856;BME280;17570;0.000;0.000;2022-10-31T09:03:03;97517.28;;;24.93;33.40
30856;BME280;17570;0.000;0.000;2022-10-31T09:05:32;97511.41;;;25.04;32.94
30856;BME280;17570;0.000;0.000;2022-10-31T09:08:02;97513.70;;;25.27;33.80
30856;BME280;17570;0.000;0.000;2022-10-31T09:10:29;97515.61;;;25.47;34.40
30856;BME280;17570;0.000;0.000;2022-10-31T09:13:03;97514.39;;;25.56;32.51
30856;BME280;17570;0.000;0.000;2022-10-31T09:15:31;97516.22;;;25.62;33.96
30856;BME280;17570;0.000;0.000;2022-10-31T09:18:01;97515.61;;;25.66;31.99
30856;BME280;17570;0.000;0.000;2022-10-31T09:20:40;97509.48;;;25.92;32.63
30856;BME280;17570;0.000;0.000;2022-10-31T09:23:17;97508.66;;;26.05;32.73
30856;BME280;17570;0.000;0.000;2022-10-31T09:25:42;97506.38;;;26.15;31.99
30856;BME280;17570;0.000;0.000;2022-10-31T09:28:23;97504.14;;;26.26;32.29
30856;BME280;17570;0.000;0.000;2022-10-31T09:30:52;97500.84;;;26.30;31.57
30856;BME280;17570;0.000;0.000;2022-10-31T09:33:22;97505.95;;;26.45;31.59
30856;BME280;17570;0.000;0.000;2022-10-31T09:35:51;97505.29;;;26.56;31.87
30856;BME280;17570;0.000;0.000;2022-10-31T09:38:19;97507.91;;;26.69;31.67
30856;BME280;17570;0.000;0.000;2022-10-31T09:40:55;97502.70;;;26.88;31.65
30856;BME280;17570;0.000;0.000;2022-10-31T09:43:25;97500.57;;;27.03;32.29
30856;BME280;17570;0.000;0.000;2022-10-31T09:46:00;97508.11;;;27.19;33.06
30856;BME280;17570;0.000;0.000;2022-10-31T09:53:53;97505.90;;;27.73;33.51
30856;BME280;17570;0.000;0.000;2022-10-31T09:56:21;97511.91;;;27.93;33.76
30856;BME280;17570;0.000;0.000;2022-10-31T09:58:49;97516.97;;;28.20;33.24
30856;BME280;17570;0.000;0.000;2022-10-31T10:01:23;97514.30;;;28.45;32.92
30856;BME280;17570;0.000;0.000;2022-10-31T10:03:46;97503.75;;;28.68;32.27
30856;BME280;17570;0.000;0.000;2022-10-31T10:06:33;97504.30;;;28.89;31.96
30856;BME280;17570;0.000;0.000;2022-10-31T10:09:22;97507.41;;;29.04;31.86
30856;BME280;17570;0.000;0.000;2022-10-31T10:22:52;97499.61;;;29.98;31.26
30856;BME280;17570;0.000;0.000;2022-10-31T10:25:20;97490.92;;;30.14;30.46
30856;BME280;17570;0.000;0.000;2022-10-31T10:27:52;97488.78;;;30.40;29.49
30856;BME280;17570;0.000;0.000;2022-10-31T10:30:22;97494.58;;;30.60;29.68
30856;BME280;17570;0.000;0.000;2022-10-31T10:32:52;97490.70;;;30.80;29.38
30856;BME280;17570;0.000;0.000;2022-10-31T10:35:21;97485.63;;;30.95;29.82
30856;BME280;17570;0.000;0.000;2022-10-31T10:37:49;97480.66;;;31.15;29.42
30856;BME280;17570;0.000;0.000;2022-10-31T10:40:18;97477.53;;;31.35;29.09
30856;BME280;17570;0.000;0.000;2022-10-31T10:43:21;97475.17;;;31.56;28.64
30856;BME280;17570;0.000;0.000;2022-10-31T10:45:38;97477.62;;;31.74;28.20
30856;BME280;17570;0.000;0.000;2022-10-31T10:51:06;97483.17;;;31.84;28.10
30856;BME280;17570;0.000;0.000;2022-10-31T10:53:54;97484.70;;;31.97;26.63
30856;BME280;17570;0.000;0.000;2022-10-31T10:56:36;97483.14;;;32.18;27.56
30856;BME280;17570;0.000;0.000;2022-10-31T10:59:04;97473.34;;;32.29;27.54
30856;BME280;17570;0.000;0.000;2022-10-31T11:01:31;97472.92;;;32.59;26.92
30856;BME280;17570;0.000;0.000;2022-10-31T11:03:59;97471.75;;;32.93;26.42
30856;BME280;17570;0.000;0.000;2022-10-31T11:06:28;97466.92;;;33.22;25.94
30856;BME280;17570;0.000;0.000;2022-10-31T11:08:58;97466.66;;;33.51;25.55
30856;BME280;17570;0.000;0.000;2022-10-31T11:11:25;97465.22;;;33.75;25.28
30856;BME280;17570;0.000;0.000;2022-10-31T11:13:59;97470.52;;;33.97;25.18
30856;BME280;17570;0.000;0.000;2022-10-31T11:16:28;97462.03;;;34.21;24.84
30856;BME280;17570;0.000;0.000;2022-10-31T11:19:04;97456.48;;;34.43;24.56
30856;BME280;17570;0.000;0.000;2022-10-31T11:21:28;97459.84;;;34.65;24.07
30856;BME280;17570;0.000;0.000;2022-10-31T11:26:38;97459.14;;;35.06;23.61
30856;BME280;17570;0.000;0.000;2022-10-31T11:31:42;97453.52;;;35.33;23.18
30856;BME280;17570;0.000;0.000;2022-10-31T11:34:20;97447.88;;;35.49;22.98
30856;BME280;17570;0.000;0.000;2022-10-31T11:36:42;97447.58;;;35.71;22.90
30856;BME280;17570;0.000;0.000;2022-10-31T11:39:15;97447.81;;;35.90;22.61
30856;BME280;17570;0.000;0.000;2022-10-31T11:41:43;97449.70;;;36.15;22.59
30856;BME280;17570;0.000;0.000;2022-10-31T11:44:12;97455.00;;;36.41;22.36
30856;BME280;17570;0.000;0.000;2022-10-31T11:46:40;97444.62;;;36.68;22.21
30856;BME280;17570;0.000;0.000;2022-10-31T11:51:51;97444.89;;;37.16;21.84
30856;BME280;17570;0.000;0.000;2022-10-31T11:54:20;97439.38;;;37.32;21.86
30856;BME280;17570;0.000;0.000;2022-10-31T11:56:48;97435.11;;;37.60;21.49
30856;BME280;17570;0.000;0.000;2022-10-31T11:59:17;97434.91;;;37.80;21.13
30856;BME280;17570;0.000;0.000;2022-10-31T12:01:48;97439.63;;;37.98;21.31
30856;BME280;17570;0.000;0.000;2022-10-31T12:04:16;97433.52;;;38.12;20.71
30856;BME280;17570;0.000;0.000;2022-10-31T12:06:44;97440.49;;;38.18;20.77
30856;BME280;17570;0.000;0.000;2022-10-31T12:09:20;97434.20;;;38.22;20.43
30856;BME280;17570;0.000;0.000;2022-10-31T12:17:14;97437.78;;;37.94;19.01
30856;BME280;17570;0.000;0.000;2022-10-31T12:22:41;97432.30;;;37.70;17.90
30856;BME280;17570;0.000;0.000;2022-10-31T12:25:11;97426.08;;;37.40;17.62
30856;BME280;17570;0.000;0.000;2022-10-31T12:30:28;97429.31;;;36.98;17.48
30856;BME280;17570;0.000;0.000;2022-10-31T12:35:23;97428.97;;;36.60;17.48
30856;BME280;17570;0.000;0.000;2022-10-31T12:37:56;97428.48;;;36.53;17.43
30856;BME280;17570;0.000;0.000;2022-10-31T12:45:34;97435.29;;;36.35;17.45
30856;BME280;17570;0.000;0.000;2022-10-31T12:53:19;97429.14;;;36.19;17.42
30856;BME280;17570;0.000;0.000;2022-10-31T12:55:51;97431.31;;;36.12;17.07
30856;BME280;17570;0.000;0.000;2022-10-31T12:58:21;97430.55;;;35.91;17.23
30856;BME280;17570;0.000;0.000;2022-10-31T13:00:46;97431.38;;;35.82;17.04
30856;BME280;17570;0.000;0.000;2022-10-31T13:03:19;97430.31;;;35.72;16.98
30856;BME280;17570;0.000;0.000;2022-10-31T13:05:47;97436.79;;;35.61;17.15
30856;BME280;17570;0.000;0.000;2022-10-31T13:08:19;97434.11;;;35.46;17.24
30856;BME280;17570;0.000;0.000;2022-10-31T13:13:30;97437.31;;;35.22;17.51
30856;BME280;17570;0.000;0.000;2022-10-31T13:15:59;97434.05;;;35.10;17.67
30856;BME280;17570;0.000;0.000;2022-10-31T13:18:27;97439.97;;;34.97;17.92
30856;BME280;17570;0.000;0.000;2022-10-31T13:20:52;97435.61;;;34.86;17.82
30856;BME280;17570;0.000;0.000;2022-10-31T13:25:51;97439.89;;;34.71;18.83
30856;BME280;17570;0.000;0.000;2022-10-31T13:28:28;97442.09;;;34.90;19.37
30856;BME280;17570;0.000;0.000;2022-10-31T13:30:54;97435.14;;;35.14;19.54
30856;BME280;17570;0.000;0.000;2022-10-31T13:33:30;97440.54;;;35.24;19.93
30856;BME280;17570;0.000;0.000;2022-10-31T13:36:15;97440.01;;;35.33;20.05
30856;BME280;17570;0.000;0.000;2022-10-31T13:41:09;97437.84;;;35.35;19.62
30856;BME280;17570;0.000;0.000;2022-10-31T13:43:43;97435.42;;;35.28;19.42
30856;BME280;17570;0.000;0.000;2022-10-31T13:46:20;97435.42;;;35.23;19.39
30856;BME280;17570;0.000;0.000;2022-10-31T13:48:36;97432.72;;;35.18;19.01
30856;BME280;17570;0.000;0.000;2022-10-31T13:51:03;97434.61;;;35.07;18.76
30856;BME280;17570;0.000;0.000;2022-10-31T13:53:37;97437.27;;;34.97;18.65
30856;BME280;17570;0.000;0.000;2022-10-31T13:58:38;97429.92;;;34.77;18.87
30856;BME280;17570;0.000;0.000;2022-10-31T14:03:35;97437.17;;;34.61;18.46
30856;BME280;17570;0.000;0.000;2022-10-31T14:06:03;97435.23;;;34.46;18.40
30856;BME280;17570;0.000;0.000;2022-10-31T14:08:33;97438.11;;;34.35;18.64
30856;BME280;17570;0.000;0.000;2022-10-31T14:11:00;97436.70;;;34.22;18.82
30856;BME280;17570;0.000;0.000;2022-10-31T14:13:30;97440.13;;;34.07;19.58
30856;BME280;17570;0.000;0.000;2022-10-31T14:16:04;97442.05;;;33.74;19.36
30856;BME280;17570;0.000;0.000;2022-10-31T14:18:33;97443.77;;;33.48;20.37
30856;BME280;17570;0.000;0.000;2022-10-31T14:21:01;97437.28;;;33.17;20.82
30856;BME280;17570;0.000;0.000;2022-10-31T14:26:50;97446.16;;;32.91;21.48
30856;BME280;17570;0.000;0.000;2022-10-31T14:28:32;97445.48;;;32.79;21.87
30856;BME280;17570;0.000;0.000;2022-10-31T14:31:00;97443.35;;;32.59;22.27
30856;BME280;17570;0.000;0.000;2022-10-31T14:33:28;97444.33;;;32.31;22.96
30856;BME280;17570;0.000;0.000;2022-10-31T14:36:00;97450.52;;;32.09;23.51
30856;BME280;17570;0.000;0.000;2022-10-31T14:41:30;97446.64;;;31.83;24.04
30856;BME280;17570;0.000;0.000;2022-10-31T14:46:52;97446.54;;;31.28;24.74
30856;BME280;17570;0.000;0.000;2022-10-31T14:52:04;97442.16;;;30.93;25.03
30856;BME280;17570;0.000;0.000;2022-10-31T14:54:37;97452.05;;;30.64;25.42